Private Wetterstation Sandau
Wetterdaten: Dienstag, 05.06.2012
Datum Zeit Temp. A. Feuchte A. Luftdruck Regen Wind Richtung Richtung Taupunkt Windchill
05.06.2012 00:01 9,8 C 86 % 1010,3 hPa 0,5 l/m 9,4 km/h (2 Bft) N 360 7,6 C 8,5 C
05.06.2012 00:06 9,8 C 87 % 1010,4 hPa 0,0 l/m 9,4 km/h (2 Bft) N-NW 337 7,7 C 8,5 C
05.06.2012 00:11 9,8 C 87 % 1010,4 hPa 0,0 l/m 7,2 km/h (2 Bft) N-NO 22 7,7 C 8,9 C
05.06.2012 00:16 9,8 C 87 % 1010,4 hPa 0,0 l/m 6,5 km/h (2 Bft) N-NO 22 7,7 C 9,1 C
05.06.2012 00:21 9,8 C 87 % 1010,5 hPa 0,0 l/m 5,0 km/h (1 Bft) N-NO 22 7,7 C 9,5 C
05.06.2012 00:26 9,8 C 87 % 1010,6 hPa 0,0 l/m 4,3 km/h (1 Bft) NO 45 7,7 C 9,8 C
05.06.2012 00:31 9,7 C 87 % 1010,5 hPa 0,0 l/m 6,1 km/h (2 Bft) N 360 7,6 C 9,1 C
05.06.2012 00:36 9,6 C 87 % 1010,5 hPa 0,0 l/m 11,9 km/h (2 Bft) NO 45 7,5 C 7,8 C
05.06.2012 00:41 9,6 C 87 % 1010,5 hPa 0,0 l/m 11,5 km/h (2 Bft) N-NO 22 7,5 C 7,9 C
05.06.2012 00:46 9,5 C 87 % 1010,8 hPa 0,5 l/m 6,1 km/h (2 Bft) O-NO 67 7,4 C 8,9 C
05.06.2012 00:51 9,4 C 86 % 1010,8 hPa 0,0 l/m 3,2 km/h (1 Bft) NO 45 7,2 C 9,4 C
05.06.2012 00:56 9,4 C 86 % 1010,7 hPa 0,0 l/m 3,6 km/h (1 Bft) N-NW 337 7,2 C 9,4 C
05.06.2012 01:01 9,3 C 87 % 1010,6 hPa 0,0 l/m 7,9 km/h (2 Bft) NW 315 7,2 C 8,2 C
05.06.2012 01:06 9,3 C 87 % 1010,7 hPa 0,0 l/m 10,4 km/h (2 Bft) O-NO 67 7,2 C 7,7 C
05.06.2012 01:11 9,3 C 87 % 1010,7 hPa 0,0 l/m 4,0 km/h (1 Bft) N 360 7,2 C 9,3 C
05.06.2012 01:16 9,3 C 87 % 1010,8 hPa 0,0 l/m 6,1 km/h (2 Bft) O-NO 67 7,2 C 8,6 C
05.06.2012 01:21 9,2 C 87 % 1010,8 hPa 0,0 l/m 5,0 km/h (1 Bft) NW 315 7,2 C 8,8 C
05.06.2012 01:26 9,2 C 87 % 1010,8 hPa 0,5 l/m 3,6 km/h (1 Bft) NO 45 7,2 C 9,2 C
05.06.2012 01:31 9,2 C 87 % 1010,8 hPa 0,0 l/m 5,4 km/h (1 Bft) O-NO 67 7,2 C 8,7 C
05.06.2012 01:36 9,1 C 87 % 1010,8 hPa 0,0 l/m 5,8 km/h (2 Bft) N-NO 22 7,1 C 8,5 C
05.06.2012 01:41 9,1 C 87 % 1010,8 hPa 0,0 l/m 3,2 km/h (1 Bft) O-NO 67 7,1 C 9,1 C
05.06.2012 01:46 9,1 C 87 % 1010,9 hPa 0,0 l/m 5,8 km/h (2 Bft) N-NO 22 7,1 C 8,5 C
05.06.2012 01:51 9,1 C 87 % 1011,0 hPa 0,0 l/m 4,0 km/h (1 Bft) N 360 7,1 C 9,1 C
05.06.2012 01:56 9,1 C 87 % 1011,0 hPa 0,5 l/m 7,6 km/h (2 Bft) NW 315 7,1 C 8,0 C
05.06.2012 02:01 9,1 C 87 % 1011,0 hPa 0,0 l/m 4,3 km/h (1 Bft) N-NW 337 7,1 C 9,1 C
05.06.2012 02:06 9,1 C 87 % 1011,0 hPa 0,0 l/m 3,6 km/h (1 Bft) N-NO 22 7,1 C 9,1 C
05.06.2012 02:11 9,1 C 87 % 1011,2 hPa 0,0 l/m 3,2 km/h (1 Bft) NO 45 7,1 C 9,1 C
05.06.2012 02:16 9,2 C 87 % 1011,1 hPa 0,0 l/m 4,0 km/h (1 Bft) NW 315 7,2 C 9,2 C
05.06.2012 02:21 9,2 C 87 % 1011,1 hPa 0,0 l/m 7,2 km/h (2 Bft) N 360 7,2 C 8,2 C
05.06.2012 02:26 9,2 C 87 % 1011,2 hPa 0,0 l/m 4,0 km/h (1 Bft) NO 45 7,2 C 9,2 C
05.06.2012 02:31 9,2 C 87 % 1011,3 hPa 0,5 l/m 3,6 km/h (1 Bft) S-SO 157 7,2 C 9,2 C
05.06.2012 02:36 9,2 C 87 % 1011,3 hPa 0,0 l/m 5,4 km/h (1 Bft) N 360 7,2 C 8,7 C
05.06.2012 02:41 9,2 C 87 % 1011,3 hPa 0,0 l/m 5,4 km/h (1 Bft) NO 45 7,2 C 8,7 C
05.06.2012 02:46 9,2 C 87 % 1011,4 hPa 0,0 l/m 4,7 km/h (1 Bft) N-NW 337 7,2 C 8,9 C
05.06.2012 02:51 9,2 C 87 % 1011,5 hPa 0,0 l/m 4,7 km/h (1 Bft) NO 45 7,2 C 8,9 C
05.06.2012 02:56 9,1 C 87 % 1011,5 hPa 0,5 l/m 8,6 km/h (2 Bft) N 360 7,1 C 7,8 C
05.06.2012 03:01 9,1 C 87 % 1011,5 hPa 0,0 l/m 5,0 km/h (1 Bft) NO 45 7,1 C 8,7 C
05.06.2012 03:06 9,1 C 87 % 1011,5 hPa 0,0 l/m 3,6 km/h (1 Bft) N-NO 22 7,1 C 9,1 C
05.06.2012 03:11 9,1 C 87 % 1011,5 hPa 0,0 l/m 3,6 km/h (1 Bft) N-NO 22 7,1 C 9,1 C
05.06.2012 03:16 9,1 C 87 % 1011,5 hPa 0,0 l/m 2,5 km/h (1 Bft) O-NO 67 7,1 C 9,1 C
05.06.2012 03:21 9,1 C 87 % 1011,6 hPa 0,0 l/m 3,2 km/h (1 Bft) N-NO 22 7,1 C 9,1 C
05.06.2012 03:26 9,0 C 87 % 1011,6 hPa 0,0 l/m 3,6 km/h (1 Bft) N-NW 337 7,0 C 9,0 C
05.06.2012 03:31 9,0 C 87 % 1011,6 hPa 0,0 l/m 5,8 km/h (2 Bft) NO 45 7,0 C 8,4 C
05.06.2012 03:36 9,0 C 87 % 1011,6 hPa 0,0 l/m 3,2 km/h (1 Bft) NW 315 7,0 C 9,0 C
05.06.2012 03:41 9,0 C 87 % 1011,6 hPa 0,5 l/m 6,5 km/h (2 Bft) N 360 7,0 C 8,2 C
05.06.2012 03:46 9,0 C 87 % 1011,6 hPa 0,0 l/m 2,5 km/h (1 Bft) N 360 7,0 C 9,0 C
05.06.2012 03:51 9,0 C 87 % 1011,6 hPa 0,0 l/m 4,3 km/h (1 Bft) O-NO 67 7,0 C 9,0 C
05.06.2012 03:56 8,9 C 87 % 1011,7 hPa 0,0 l/m 2,9 km/h (1 Bft) NO 45 6,9 C 8,9 C
05.06.2012 04:01 9,0 C 87 % 1011,7 hPa 0,0 l/m 2,9 km/h (1 Bft) N 360 7,0 C 9,0 C
05.06.2012 04:06 9,0 C 87 % 1011,7 hPa 0,0 l/m 1,4 km/h (1 Bft) N 360 7,0 C 9,0 C
05.06.2012 04:11 9,0 C 87 % 1011,7 hPa 0,0 l/m 5,4 km/h (1 Bft) N 360 7,0 C 8,5 C
05.06.2012 04:16 8,9 C 87 % 1011,8 hPa 0,0 l/m 2,5 km/h (1 Bft) N-NO 22 6,9 C 8,9 C
05.06.2012 04:21 8,9 C 87 % 1012,0 hPa 0,0 l/m 1,4 km/h (1 Bft) NW 315 6,9 C 8,9 C
05.06.2012 04:26 8,9 C 87 % 1011,9 hPa 0,0 l/m 2,9 km/h (1 Bft) N-NO 22 6,9 C 8,9 C
05.06.2012 04:31 8,9 C 87 % 1012,0 hPa 0,0 l/m 4,0 km/h (1 Bft) N-NW 337 6,9 C 8,9 C
05.06.2012 04:36 8,9 C 87 % 1012,1 hPa 0,0 l/m 5,4 km/h (1 Bft) W-NW 292 6,9 C 8,4 C
05.06.2012 04:41 8,8 C 87 % 1012,0 hPa 0,0 l/m 3,2 km/h (1 Bft) N 360 6,8 C 8,8 C
05.06.2012 04:46 8,8 C 87 % 1012,2 hPa 0,0 l/m 4,0 km/h (1 Bft) N-NO 22 6,8 C 8,8 C
05.06.2012 04:51 8,8 C 87 % 1012,3 hPa 0,0 l/m 1,8 km/h (1 Bft) NW 315 6,8 C 8,8 C
05.06.2012 04:56 8,7 C 87 % 1012,2 hPa 0,0 l/m 4,7 km/h (1 Bft) NW 315 6,7 C 8,4 C
05.06.2012 05:01 8,7 C 87 % 1012,3 hPa 0,0 l/m 2,5 km/h (1 Bft) N-NW 337 6,7 C 8,7 C
05.06.2012 05:06 8,7 C 86 % 1012,4 hPa 0,0 l/m 7,6 km/h (2 Bft) NW 315 6,5 C 7,6 C
05.06.2012 05:11 8,6 C 86 % 1012,6 hPa 0,0 l/m 5,0 km/h (1 Bft) NW 315 6,4 C 8,2 C
05.06.2012 05:16 8,6 C 86 % 1012,7 hPa 0,0 l/m 7,6 km/h (2 Bft) NW 315 6,4 C 7,5 C
05.06.2012 05:21 8,5 C 86 % 1012,7 hPa 0,0 l/m 4,0 km/h (1 Bft) NO 45 6,3 C 8,5 C
05.06.2012 05:26 8,5 C 86 % 1012,7 hPa 0,0 l/m 2,5 km/h (1 Bft) O-NO 67 6,3 C 8,5 C
05.06.2012 05:31 8,4 C 86 % 1012,7 hPa 0,0 l/m 2,9 km/h (1 Bft) N-NO 22 6,2 C 8,4 C
05.06.2012 05:36 8,4 C 86 % 1012,8 hPa 0,0 l/m 6,1 km/h (2 Bft) W-NW 292 6,2 C 7,6 C
05.06.2012 05:41 8,4 C 86 % 1012,9 hPa 0,0 l/m 1,1 km/h (1 Bft) N 360 6,2 C 8,4 C
05.06.2012 05:46 8,4 C 86 % 1013,0 hPa 0,0 l/m 2,5 km/h (1 Bft) NW 315 6,2 C 8,4 C
05.06.2012 05:51 8,4 C 86 % 1013,2 hPa 0,0 l/m 6,1 km/h (2 Bft) NW 315 6,2 C 7,6 C
05.06.2012 05:56 8,4 C 86 % 1013,3 hPa 0,0 l/m 5,0 km/h (1 Bft) NW 315 6,2 C 7,9 C
05.06.2012 06:01 8,4 C 86 % 1013,5 hPa 0,0 l/m 1,4 km/h (1 Bft) N-NO 22 6,2 C 8,4 C
05.06.2012 06:06 8,4 C 86 % 1013,4 hPa 0,0 l/m 3,2 km/h (1 Bft) W-NW 292 6,2 C 8,4 C
05.06.2012 06:11 8,4 C 86 % 1013,5 hPa 0,0 l/m 1,1 km/h (1 Bft) N-NO 22 6,2 C 8,4 C
05.06.2012 06:16 8,3 C 86 % 1013,6 hPa 0,0 l/m 4,0 km/h (1 Bft) N 360 6,1 C 8,3 C
05.06.2012 06:21 8,4 C 86 % 1013,7 hPa 0,0 l/m 3,2 km/h (1 Bft) NW 315 6,2 C 8,4 C
05.06.2012 06:26 8,6 C 87 % 1013,7 hPa 0,0 l/m 1,8 km/h (1 Bft) W-NW 292 6,6 C 8,6 C
05.06.2012 06:31 9,0 C 87 % 1013,7 hPa 0,0 l/m 3,2 km/h (1 Bft) NW 315 7,0 C 9,0 C
05.06.2012 06:36 9,3 C 86 % 1013,8 hPa 0,0 l/m 2,5 km/h (1 Bft) W 270 7,1 C 9,3 C
05.06.2012 06:41 9,6 C 85 % 1013,7 hPa 0,0 l/m 5,8 km/h (2 Bft) W-NW 292 7,2 C 9,1 C
05.06.2012 06:46 9,8 C 84 % 1013,8 hPa 0,0 l/m 7,9 km/h (2 Bft) W-NW 292 7,2 C 8,8 C
05.06.2012 06:51 9,8 C 83 % 1013,8 hPa 0,0 l/m 3,6 km/h (1 Bft) NW 315 7,1 C 9,8 C
05.06.2012 06:56 9,8 C 83 % 1013,9 hPa 0,0 l/m 2,5 km/h (1 Bft) N-NO 22 7,1 C 9,8 C
05.06.2012 07:01 9,5 C 82 % 1014,0 hPa 0,0 l/m 2,5 km/h (1 Bft) N-NW 337 6,6 C 9,5 C
05.06.2012 07:06 9,5 C 82 % 1014,2 hPa 0,0 l/m 3,2 km/h (1 Bft) W 270 6,6 C 9,5 C
05.06.2012 07:11 9,6 C 83 % 1014,2 hPa 0,0 l/m 6,8 km/h (2 Bft) W-NW 292 6,9 C 8,8 C
05.06.2012 07:16 9,8 C 83 % 1014,3 hPa 0,0 l/m 4,0 km/h (1 Bft) N-NW 337 7,1 C 9,8 C
05.06.2012 07:21 9,9 C 83 % 1014,3 hPa 0,0 l/m 2,5 km/h (1 Bft) NW 315 7,2 C 9,9 C
05.06.2012 07:26 10,1 C 82 % 1014,3 hPa 0,0 l/m 9,4 km/h (2 Bft) W 270 7,2 C 10,1 C
05.06.2012 07:31 10,3 C 82 % 1014,3 hPa 0,0 l/m 6,1 km/h (2 Bft) N-NW 337 7,4 C 10,3 C
05.06.2012 07:36 10,5 C 82 % 1014,5 hPa 0,0 l/m 5,8 km/h (2 Bft) W 270 7,6 C 10,5 C
05.06.2012 07:41 10,8 C 81 % 1014,6 hPa 0,0 l/m 7,6 km/h (2 Bft) N 360 7,7 C 10,8 C
05.06.2012 07:46 11,0 C 80 % 1014,7 hPa 0,0 l/m 13,3 km/h (3 Bft) N-NW 337 7,7 C 11,0 C
05.06.2012 07:51 11,3 C 79 % 1014,7 hPa 0,0 l/m 12,2 km/h (2 Bft) NW 315 7,8 C 11,3 C
05.06.2012 07:56 11,4 C 78 % 1014,9 hPa 0,0 l/m 9,0 km/h (2 Bft) W-NW 292 7,7 C 11,4 C
05.06.2012 08:01 11,5 C 78 % 1014,7 hPa 0,0 l/m 6,1 km/h (2 Bft) N-NW 337 7,8 C 11,5 C
05.06.2012 08:06 11,6 C 77 % 1014,7 hPa 0,0 l/m 4,3 km/h (1 Bft) N-NO 22 7,7 C 11,6 C
05.06.2012 08:11 11,5 C 75 % 1014,9 hPa 0,0 l/m 7,2 km/h (2 Bft) NW 315 7,2 C 11,5 C
05.06.2012 08:16 11,4 C 76 % 1015,0 hPa 0,0 l/m 4,7 km/h (1 Bft) W 270 7,3 C 11,4 C
05.06.2012 08:21 11,8 C 76 % 1015,0 hPa 0,0 l/m 12,6 km/h (3 Bft) N-NW 337 7,7 C 11,8 C
05.06.2012 08:26 11,9 C 74 % 1015,0 hPa 0,0 l/m 6,5 km/h (2 Bft) N-NW 337 7,4 C 11,9 C
05.06.2012 08:31 12,1 C 73 % 1015,1 hPa 0,0 l/m 10,4 km/h (2 Bft) N-NW 337 7,4 C 12,1 C
05.06.2012 08:36 12,3 C 73 % 1015,1 hPa 0,0 l/m 7,6 km/h (2 Bft) W-NW 292 7,6 C 12,3 C
05.06.2012 08:41 12,4 C 71 % 1015,1 hPa 0,0 l/m 5,4 km/h (1 Bft) NW 315 7,3 C 12,4 C
05.06.2012 08:46 12,4 C 71 % 1015,3 hPa 0,0 l/m 11,2 km/h (2 Bft) N-NW 337 7,3 C 12,4 C
05.06.2012 08:51 12,4 C 72 % 1015,4 hPa 0,0 l/m 16,9 km/h (3 Bft) W-NW 292 7,5 C 12,4 C
05.06.2012 08:56 12,7 C 71 % 1015,4 hPa 0,0 l/m 4,3 km/h (1 Bft) NW 315 7,6 C 12,7 C
05.06.2012 09:01 12,9 C 70 % 1015,4 hPa 0,0 l/m 18,7 km/h (3 Bft) W-NW 292 7,6 C 12,9 C
05.06.2012 09:06 12,9 C 69 % 1015,5 hPa 0,0 l/m 6,1 km/h (2 Bft) W-NW 292 7,4 C 12,9 C
05.06.2012 09:11 12,8 C 69 % 1015,6 hPa 0,0 l/m 12,6 km/h (3 Bft) NW 315 7,3 C 12,8 C
05.06.2012 09:16 12,6 C 69 % 1015,6 hPa 0,0 l/m 9,7 km/h (2 Bft) W-NW 292 7,1 C 12,6 C
05.06.2012 09:21 12,6 C 68 % 1015,7 hPa 0,0 l/m 2,9 km/h (1 Bft) NO 45 6,9 C 12,6 C
05.06.2012 09:26 12,5 C 66 % 1015,8 hPa 0,0 l/m 10,1 km/h (2 Bft) N-NW 337 6,3 C 12,5 C
05.06.2012 09:31 12,8 C 67 % 1015,7 hPa 0,0 l/m 8,6 km/h (2 Bft) W-NW 292 6,8 C 12,8 C
05.06.2012 09:36 12,9 C 64 % 1015,8 hPa 0,0 l/m 10,1 km/h (2 Bft) W-NW 292 6,3 C 12,9 C
05.06.2012 09:41 12,8 C 64 % 1015,8 hPa 0,0 l/m 14,4 km/h (3 Bft) W-NW 292 6,2 C 12,8 C
05.06.2012 09:46 12,9 C 65 % 1015,9 hPa 0,0 l/m 12,6 km/h (3 Bft) W 270 6,5 C 12,9 C
05.06.2012 09:51 12,9 C 65 % 1016,0 hPa 0,0 l/m 8,3 km/h (2 Bft) W-NW 292 6,5 C 12,9 C
05.06.2012 09:56 12,8 C 65 % 1016,0 hPa 0,0 l/m 5,8 km/h (2 Bft) N 360 6,4 C 12,8 C
05.06.2012 10:01 12,5 C 64 % 1016,1 hPa 0,0 l/m 11,5 km/h (2 Bft) NW 315 5,9 C 12,5 C
05.06.2012 10:06 12,4 C 65 % 1016,0 hPa 0,0 l/m 18,4 km/h (3 Bft) N-NW 337 6,0 C 12,4 C
05.06.2012 10:11 12,4 C 64 % 1016,1 hPa 0,0 l/m 15,8 km/h (3 Bft) N 360 5,8 C 12,4 C
05.06.2012 10:16 12,4 C 65 % 1016,3 hPa 0,0 l/m 5,0 km/h (1 Bft) W-NW 292 6,0 C 12,4 C
05.06.2012 10:21 12,6 C 65 % 1016,3 hPa 0,0 l/m 8,3 km/h (2 Bft) W-NW 292 6,2 C 12,6 C
05.06.2012 10:26 12,8 C 64 % 1016,3 hPa 0,0 l/m 9,0 km/h (2 Bft) W-NW 292 6,2 C 12,8 C
05.06.2012 10:31 12,8 C 64 % 1016,4 hPa 0,0 l/m 9,0 km/h (2 Bft) W 270 6,2 C 12,8 C
05.06.2012 10:36 12,9 C 64 % 1016,3 hPa 0,0 l/m 10,1 km/h (2 Bft) W-NW 292 6,3 C 12,9 C
05.06.2012 10:41 13,0 C 64 % 1016,4 hPa 0,0 l/m 14,4 km/h (3 Bft) W-NW 292 6,4 C 13,0 C
05.06.2012 10:46 13,3 C 63 % 1016,5 hPa 0,0 l/m 18,4 km/h (3 Bft) W 270 6,4 C 13,3 C
05.06.2012 10:51 13,5 C 62 % 1016,6 hPa 0,0 l/m 4,7 km/h (1 Bft) W-NW 292 6,4 C 13,5 C
05.06.2012 10:56 13,4 C 61 % 1016,7 hPa 0,0 l/m 6,5 km/h (2 Bft) W-NW 292 6,0 C 13,4 C
05.06.2012 11:01 13,1 C 60 % 1016,9 hPa 0,0 l/m 6,8 km/h (2 Bft) N-NW 337 5,5 C 13,1 C
05.06.2012 11:06 12,9 C 60 % 1016,9 hPa 0,0 l/m 9,0 km/h (2 Bft) W-NW 292 5,3 C 12,9 C
05.06.2012 11:11 12,6 C 61 % 1016,9 hPa 0,0 l/m 8,3 km/h (2 Bft) NW 315 5,3 C 12,6 C
05.06.2012 11:16 12,5 C 63 % 1016,9 hPa 0,0 l/m 9,7 km/h (2 Bft) N-NW 337 5,7 C 12,5 C
05.06.2012 11:21 12,5 C 63 % 1016,9 hPa 0,0 l/m 2,2 km/h (1 Bft) O 90 5,7 C 12,5 C
05.06.2012 11:26 12,6 C 63 % 1016,8 hPa 0,0 l/m 4,7 km/h (1 Bft) O 90 5,7 C 12,6 C
05.06.2012 11:31 12,9 C 63 % 1016,8 hPa 0,0 l/m 6,5 km/h (2 Bft) W-NW 292 6,0 C 12,9 C
05.06.2012 11:36 13,4 C 62 % 1016,8 hPa 0,0 l/m 8,6 km/h (2 Bft) NW 315 6,3 C 13,4 C
05.06.2012 11:41 13,8 C 62 % 1016,8 hPa 0,0 l/m 6,8 km/h (2 Bft) NW 315 6,6 C 13,8 C
05.06.2012 11:46 13,8 C 60 % 1016,9 hPa 0,0 l/m 7,6 km/h (2 Bft) N-NW 337 6,2 C 13,8 C
05.06.2012 11:51 13,6 C 60 % 1017,0 hPa 0,0 l/m 7,6 km/h (2 Bft) W-SW 247 6,0 C 13,6 C
05.06.2012 11:56 13,6 C 60 % 1016,9 hPa 0,0 l/m 0,0 km/h (0 Bft) O 90 6,0 C 13,6 C
05.06.2012 12:01 13,8 C 60 % 1016,9 hPa 0,0 l/m 8,3 km/h (2 Bft) W 270 6,2 C 13,8 C
05.06.2012 12:06 13,9 C 59 % 1017,0 hPa 0,0 l/m 2,9 km/h (1 Bft) NW 315 6,0 C 13,9 C
05.06.2012 12:11 13,9 C 57 % 1017,1 hPa 0,0 l/m 6,5 km/h (2 Bft) NO 45 5,5 C 13,9 C
05.06.2012 12:16 13,9 C 56 % 1017,1 hPa 0,0 l/m 6,8 km/h (2 Bft) W-NW 292 5,3 C 13,9 C
05.06.2012 12:21 13,8 C 56 % 1017,3 hPa 0,0 l/m 16,6 km/h (3 Bft) NW 315 5,2 C 13,8 C
05.06.2012 12:26 13,7 C 57 % 1017,2 hPa 0,0 l/m 6,8 km/h (2 Bft) W-SW 247 5,3 C 13,7 C
05.06.2012 12:31 13,8 C 57 % 1017,2 hPa 0,0 l/m 8,6 km/h (2 Bft) N-NW 337 5,4 C 13,8 C
05.06.2012 12:36 13,8 C 58 % 1017,3 hPa 0,0 l/m 7,6 km/h (2 Bft) W-NW 292 5,7 C 13,8 C
05.06.2012 12:41 13,9 C 57 % 1017,2 hPa 0,0 l/m 6,1 km/h (2 Bft) W 270 5,5 C 13,9 C
05.06.2012 12:46 14,1 C 58 % 1017,4 hPa 0,0 l/m 12,2 km/h (2 Bft) W-NW 292 6,0 C 14,1 C
05.06.2012 12:51 14,6 C 58 % 1017,3 hPa 0,0 l/m 15,5 km/h (3 Bft) W-NW 292 6,4 C 14,6 C
05.06.2012 12:56 14,8 C 58 % 1017,4 hPa 0,0 l/m 8,6 km/h (2 Bft) NW 315 6,6 C 14,8 C
05.06.2012 13:01 14,8 C 57 % 1017,5 hPa 0,0 l/m 5,8 km/h (2 Bft) NW 315 6,4 C 14,8 C
05.06.2012 13:06 14,5 C 57 % 1017,6 hPa 0,0 l/m 9,7 km/h (2 Bft) W-NW 292 6,1 C 14,5 C
05.06.2012 13:11 14,3 C 58 % 1017,6 hPa 0,0 l/m 4,0 km/h (1 Bft) W 270 6,2 C 14,3 C
05.06.2012 13:16 14,3 C 57 % 1017,6 hPa 0,0 l/m 12,6 km/h (3 Bft) W-NW 292 5,9 C 14,3 C
05.06.2012 13:21 14,1 C 57 % 1017,6 hPa 0,0 l/m 13,0 km/h (3 Bft) N-NO 22 5,7 C 14,1 C
05.06.2012 13:26 14,1 C 57 % 1017,7 hPa 0,0 l/m 14,0 km/h (3 Bft) W 270 5,7 C 14,1 C
05.06.2012 13:31 14,1 C 57 % 1017,7 hPa 0,0 l/m 8,3 km/h (2 Bft) W 270 5,7 C 14,1 C
05.06.2012 13:36 14,1 C 57 % 1017,7 hPa 0,0 l/m 4,0 km/h (1 Bft) N-NW 337 5,7 C 14,1 C
05.06.2012 13:41 14,1 C 58 % 1017,7 hPa 0,0 l/m 5,8 km/h (2 Bft) W 270 6,0 C 14,1 C
05.06.2012 13:46 14,1 C 58 % 1017,7 hPa 0,0 l/m 6,1 km/h (2 Bft) W 270 6,0 C 14,1 C
05.06.2012 13:51 13,9 C 59 % 1017,8 hPa 0,0 l/m 15,8 km/h (3 Bft) W-NW 292 6,0 C 13,9 C
05.06.2012 13:56 13,8 C 59 % 1017,6 hPa 0,0 l/m 14,4 km/h (3 Bft) W-SW 247 5,9 C 13,8 C
05.06.2012 14:01 13,9 C 59 % 1017,6 hPa 0,0 l/m 13,3 km/h (3 Bft) W-NW 292 6,0 C 13,9 C
05.06.2012 14:06 13,9 C 58 % 1017,5 hPa 0,0 l/m 12,2 km/h (2 Bft) W-SW 247 5,8 C 13,9 C
05.06.2012 14:11 14,4 C 58 % 1017,6 hPa 0,0 l/m 6,1 km/h (2 Bft) W 270 6,2 C 14,4 C
05.06.2012 14:16 14,9 C 57 % 1017,4 hPa 0,0 l/m 13,0 km/h (3 Bft) W-SW 247 6,5 C 14,9 C
05.06.2012 14:21 15,0 C 56 % 1017,5 hPa 0,0 l/m 8,3 km/h (2 Bft) W-NW 292 6,3 C 15,0 C
05.06.2012 14:26 15,4 C 55 % 1017,5 hPa 0,0 l/m 9,0 km/h (2 Bft) W-SW 247 6,4 C 15,4 C
05.06.2012 14:31 15,8 C 54 % 1017,4 hPa 0,0 l/m 15,1 km/h (3 Bft) W-NW 292 6,5 C 15,8 C
05.06.2012 14:36 16,0 C 54 % 1017,5 hPa 0,0 l/m 10,1 km/h (2 Bft) SW 225 6,7 C 16,0 C
05.06.2012 14:41 16,3 C 54 % 1017,5 hPa 0,0 l/m 11,2 km/h (2 Bft) W 270 7,0 C 16,3 C
05.06.2012 14:46 16,5 C 52 % 1017,4 hPa 0,0 l/m 5,8 km/h (2 Bft) W 270 6,6 C 16,5 C
05.06.2012 14:51 16,4 C 51 % 1017,6 hPa 0,0 l/m 13,3 km/h (3 Bft) NW 315 6,2 C 16,4 C
05.06.2012 14:56 16,1 C 50 % 1017,6 hPa 0,0 l/m 10,1 km/h (2 Bft) W 270 5,7 C 16,1 C
05.06.2012 15:01 15,6 C 51 % 1017,8 hPa 0,0 l/m 11,5 km/h (2 Bft) NW 315 5,5 C 15,6 C
05.06.2012 15:06 15,3 C 53 % 1017,7 hPa 0,0 l/m 16,9 km/h (3 Bft) NW 315 5,8 C 15,3 C
05.06.2012 15:11 14,9 C 54 % 1017,8 hPa 0,0 l/m 16,2 km/h (3 Bft) NW 315 5,7 C 14,9 C
05.06.2012 15:16 14,8 C 55 % 1017,8 hPa 0,0 l/m 9,4 km/h (2 Bft) NW 315 5,8 C 14,8 C
05.06.2012 15:21 14,6 C 56 % 1017,9 hPa 0,0 l/m 7,9 km/h (2 Bft) NW 315 5,9 C 14,6 C
05.06.2012 15:26 14,4 C 56 % 1017,9 hPa 0,0 l/m 6,8 km/h (2 Bft) W 270 5,7 C 14,4 C
05.06.2012 15:31 14,4 C 56 % 1017,9 hPa 0,0 l/m 13,3 km/h (3 Bft) N-NW 337 5,7 C 14,4 C
05.06.2012 15:36 14,4 C 56 % 1017,9 hPa 0,0 l/m 10,1 km/h (2 Bft) N-NW 337 5,7 C 14,4 C
05.06.2012 15:41 14,4 C 56 % 1017,9 hPa 0,0 l/m 15,1 km/h (3 Bft) W-NW 292 5,7 C 14,4 C
05.06.2012 15:46 14,5 C 56 % 1017,9 hPa 0,0 l/m 13,3 km/h (3 Bft) W-NW 292 5,8 C 14,5 C
05.06.2012 15:51 14,6 C 56 % 1017,8 hPa 0,0 l/m 14,4 km/h (3 Bft) W-NW 292 5,9 C 14,6 C
05.06.2012 15:56 14,6 C 57 % 1017,9 hPa 0,0 l/m 8,6 km/h (2 Bft) W 270 6,2 C 14,6 C
05.06.2012 16:01 14,7 C 57 % 1017,9 hPa 0,0 l/m 8,6 km/h (2 Bft) W-NW 292 6,3 C 14,7 C
05.06.2012 16:06 14,7 C 56 % 1017,9 hPa 0,0 l/m 3,6 km/h (1 Bft) W 270 6,0 C 14,7 C
05.06.2012 16:11 14,8 C 56 % 1017,9 hPa 0,0 l/m 16,2 km/h (3 Bft) W 270 6,1 C 14,8 C
05.06.2012 16:16 14,9 C 56 % 1017,9 hPa 0,0 l/m 6,1 km/h (2 Bft) W-NW 292 6,2 C 14,9 C
05.06.2012 16:21 15,1 C 56 % 1017,8 hPa 0,0 l/m 9,0 km/h (2 Bft) NW 315 6,4 C 15,1 C
05.06.2012 16:26 15,3 C 55 % 1017,9 hPa 0,0 l/m 7,6 km/h (2 Bft) W-SW 247 6,3 C 15,3 C
05.06.2012 16:31 15,4 C 54 % 1017,8 hPa 0,0 l/m 5,0 km/h (1 Bft) W-NW 292 6,1 C 15,4 C
05.06.2012 16:36 15,4 C 54 % 1017,6 hPa 0,0 l/m 8,6 km/h (2 Bft) W 270 6,1 C 15,4 C
05.06.2012 16:41 15,3 C 54 % 1017,7 hPa 0,0 l/m 4,0 km/h (1 Bft) N 360 6,0 C 15,3 C
05.06.2012 16:46 15,2 C 55 % 1017,7 hPa 0,0 l/m 3,2 km/h (1 Bft) W 270 6,2 C 15,2 C
05.06.2012 16:51 15,1 C 55 % 1017,8 hPa 0,0 l/m 9,4 km/h (2 Bft) NW 315 6,1 C 15,1 C
05.06.2012 16:56 14,9 C 55 % 1017,7 hPa 0,0 l/m 3,2 km/h (1 Bft) W-NW 292 5,9 C 14,9 C
05.06.2012 17:01 14,9 C 55 % 1017,8 hPa 0,0 l/m 12,6 km/h (3 Bft) NW 315 5,9 C 14,9 C
05.06.2012 17:06 14,9 C 54 % 1017,8 hPa 0,0 l/m 3,6 km/h (1 Bft) W 270 5,7 C 14,9 C
05.06.2012 17:11 14,9 C 55 % 1017,9 hPa 0,0 l/m 10,4 km/h (2 Bft) NW 315 5,9 C 14,9 C
05.06.2012 17:16 15,2 C 55 % 1017,8 hPa 0,0 l/m 7,2 km/h (2 Bft) NW 315 6,2 C 15,2 C
05.06.2012 17:21 15,4 C 55 % 1017,8 hPa 0,0 l/m 15,8 km/h (3 Bft) W-NW 292 6,4 C 15,4 C
05.06.2012 17:26 15,6 C 54 % 1017,8 hPa 0,0 l/m 5,4 km/h (1 Bft) NW 315 6,3 C 15,6 C
05.06.2012 17:31 15,6 C 54 % 1017,7 hPa 0,0 l/m 11,9 km/h (2 Bft) W-NW 292 6,3 C 15,6 C
05.06.2012 17:36 15,6 C 53 % 1017,8 hPa 0,0 l/m 11,5 km/h (2 Bft) N 360 6,1 C 15,6 C
05.06.2012 17:41 15,4 C 53 % 1017,8 hPa 0,0 l/m 9,4 km/h (2 Bft) W 270 5,9 C 15,4 C
05.06.2012 17:46 15,2 C 54 % 1017,7 hPa 0,0 l/m 10,1 km/h (2 Bft) W 270 6,0 C 15,2 C
05.06.2012 17:51 14,9 C 54 % 1017,8 hPa 0,0 l/m 2,5 km/h (1 Bft) W 270 5,7 C 14,9 C
05.06.2012 17:56 14,9 C 54 % 1017,6 hPa 0,0 l/m 12,6 km/h (3 Bft) W-NW 292 5,7 C 14,9 C
05.06.2012 18:01 14,9 C 54 % 1017,6 hPa 0,0 l/m 7,6 km/h (2 Bft) W-NW 292 5,7 C 14,9 C
05.06.2012 18:06 15,0 C 54 % 1017,5 hPa 0,0 l/m 8,6 km/h (2 Bft) W 270 5,8 C 15,0 C
05.06.2012 18:11 15,2 C 55 % 1017,5 hPa 0,0 l/m 6,8 km/h (2 Bft) W 270 6,2 C 15,2 C
05.06.2012 18:16 15,2 C 54 % 1017,5 hPa 0,0 l/m 5,8 km/h (2 Bft) W 270 6,0 C 15,2 C
05.06.2012 18:21 15,4 C 54 % 1017,5 hPa 0,0 l/m 5,8 km/h (2 Bft) W 270 6,1 C 15,4 C
05.06.2012 18:26 15,5 C 53 % 1017,4 hPa 0,0 l/m 12,6 km/h (3 Bft) W-NW 292 6,0 C 15,5 C
05.06.2012 18:31 15,6 C 53 % 1017,4 hPa 0,0 l/m 6,1 km/h (2 Bft) W-NW 292 6,1 C 15,6 C
05.06.2012 18:36 15,8 C 54 % 1017,4 hPa 0,0 l/m 7,6 km/h (2 Bft) W 270 6,5 C 15,8 C
05.06.2012 18:41 15,9 C 54 % 1017,5 hPa 0,0 l/m 14,8 km/h (3 Bft) SW 225 6,6 C 15,9 C
05.06.2012 18:46 15,9 C 54 % 1017,4 hPa 0,0 l/m 12,2 km/h (2 Bft) SW 225 6,6 C 15,9 C
05.06.2012 18:51 15,9 C 54 % 1017,4 hPa 0,0 l/m 9,4 km/h (2 Bft) W-SW 247 6,6 C 15,9 C
05.06.2012 18:56 15,9 C 54 % 1017,5 hPa 0,0 l/m 7,6 km/h (2 Bft) W-NW 292 6,6 C 15,9 C
05.06.2012 19:01 15,8 C 54 % 1017,5 hPa 0,0 l/m 6,8 km/h (2 Bft) NW 315 6,5 C 15,8 C
05.06.2012 19:06 15,4 C 54 % 1017,6 hPa 0,0 l/m 9,0 km/h (2 Bft) W-NW 292 6,1 C 15,4 C
05.06.2012 19:11 14,9 C 55 % 1017,5 hPa 0,0 l/m 3,2 km/h (1 Bft) W-SW 247 5,9 C 14,9 C
05.06.2012 19:16 14,9 C 57 % 1017,5 hPa 0,0 l/m 4,7 km/h (1 Bft) W-SW 247 6,5 C 14,9 C
05.06.2012 19:21 14,9 C 57 % 1017,6 hPa 0,0 l/m 6,8 km/h (2 Bft) W-SW 247 6,5 C 14,9 C
05.06.2012 19:26 14,9 C 58 % 1017,6 hPa 0,0 l/m 3,6 km/h (1 Bft) W 270 6,7 C 14,9 C
05.06.2012 19:31 14,9 C 58 % 1017,6 hPa 0,0 l/m 6,5 km/h (2 Bft) W-SW 247 6,7 C 14,9 C
05.06.2012 19:36 15,1 C 58 % 1017,4 hPa 0,0 l/m 3,2 km/h (1 Bft) W 270 6,9 C 15,1 C
05.06.2012 19:41 15,3 C 57 % 1017,3 hPa 0,0 l/m 7,6 km/h (2 Bft) W-SW 247 6,8 C 15,3 C
05.06.2012 19:46 15,6 C 57 % 1017,5 hPa 0,0 l/m 13,0 km/h (3 Bft) W-SW 247 7,1 C 15,6 C
05.06.2012 19:51 15,8 C 55 % 1017,4 hPa 0,0 l/m 11,9 km/h (2 Bft) W 270 6,8 C 15,8 C
05.06.2012 19:56 15,6 C 54 % 1017,5 hPa 0,0 l/m 3,6 km/h (1 Bft) W-SW 247 6,3 C 15,6 C
05.06.2012 20:01 15,6 C 53 % 1017,4 hPa 0,0 l/m 8,3 km/h (2 Bft) SW 225 6,1 C 15,6 C
05.06.2012 20:06 15,6 C 53 % 1017,4 hPa 0,0 l/m 7,2 km/h (2 Bft) W-NW 292 6,1 C 15,6 C
05.06.2012 20:11 15,5 C 53 % 1017,4 hPa 0,0 l/m 6,5 km/h (2 Bft) NW 315 6,0 C 15,5 C
05.06.2012 20:16 15,3 C 54 % 1017,4 hPa 0,0 l/m 1,4 km/h (1 Bft) W 270 6,0 C 15,3 C
05.06.2012 20:21 15,3 C 54 % 1017,5 hPa 0,0 l/m 3,2 km/h (1 Bft) W-SW 247 6,0 C 15,3 C
05.06.2012 20:26 15,2 C 55 % 1017,6 hPa 0,0 l/m 3,6 km/h (1 Bft) W 270 6,2 C 15,2 C
05.06.2012 20:31 15,1 C 55 % 1017,6 hPa 0,0 l/m 2,2 km/h (1 Bft) W 270 6,1 C 15,1 C
05.06.2012 20:36 14,9 C 56 % 1017,7 hPa 0,0 l/m 3,2 km/h (1 Bft) W-SW 247 6,2 C 14,9 C
05.06.2012 20:41 14,9 C 56 % 1017,7 hPa 0,0 l/m 3,6 km/h (1 Bft) W-SW 247 6,2 C 14,9 C
05.06.2012 20:46 14,7 C 57 % 1017,8 hPa 0,0 l/m 5,8 km/h (2 Bft) W-SW 247 6,3 C 14,7 C
05.06.2012 20:51 14,5 C 57 % 1017,8 hPa 0,0 l/m 0,0 km/h (0 Bft) W 270 6,1 C 14,5 C
05.06.2012 20:56 14,4 C 58 % 1017,6 hPa 0,0 l/m 3,6 km/h (1 Bft) W-SW 247 6,2 C 14,4 C
05.06.2012 21:01 14,2 C 58 % 1017,6 hPa 0,0 l/m 2,2 km/h (1 Bft) W 270 6,1 C 14,2 C
05.06.2012 21:06 14,1 C 59 % 1017,5 hPa 0,0 l/m 0,0 km/h (0 Bft) W 270 6,2 C 14,1 C
05.06.2012 21:11 13,9 C 60 % 1017,6 hPa 0,0 l/m 0,0 km/h (0 Bft) W-SW 247 6,3 C 13,9 C
05.06.2012 21:16 13,8 C 60 % 1017,6 hPa 0,0 l/m 5,8 km/h (2 Bft) W-SW 247 6,2 C 13,8 C
05.06.2012 21:21 13,8 C 60 % 1017,6 hPa 0,0 l/m 5,0 km/h (1 Bft) W-SW 247 6,2 C 13,8 C
05.06.2012 21:26 13,6 C 61 % 1017,5 hPa 0,0 l/m 4,0 km/h (1 Bft) SW 225 6,2 C 13,6 C
05.06.2012 21:31 13,6 C 61 % 1017,5 hPa 0,0 l/m 3,2 km/h (1 Bft) SW 225 6,2 C 13,6 C
05.06.2012 21:36 13,5 C 61 % 1017,6 hPa 0,0 l/m 0,0 km/h (0 Bft) W-SW 247 6,1 C 13,5 C
05.06.2012 21:41 13,5 C 62 % 1017,6 hPa 0,0 l/m 1,4 km/h (1 Bft) S-SW 202 6,4 C 13,5 C
05.06.2012 21:46 13,4 C 62 % 1017,8 hPa 0,0 l/m 0,0 km/h (0 Bft) S-SW 202 6,3 C 13,4 C
05.06.2012 21:51 13,3 C 62 % 1017,7 hPa 0,0 l/m 0,0 km/h (0 Bft) W-SW 247 6,2 C 13,3 C
05.06.2012 21:56 13,3 C 62 % 1017,7 hPa 0,0 l/m 4,0 km/h (1 Bft) SW 225 6,2 C 13,3 C
05.06.2012 22:01 13,3 C 63 % 1017,7 hPa 0,0 l/m 0,0 km/h (0 Bft) W-SW 247 6,4 C 13,3 C
05.06.2012 22:06 13,2 C 63 % 1017,7 hPa 0,0 l/m 0,0 km/h (0 Bft) W-SW 247 6,3 C 13,2 C
05.06.2012 22:11 13,1 C 63 % 1017,7 hPa 0,0 l/m 2,5 km/h (1 Bft) W-SW 247 6,2 C 13,1 C
05.06.2012 22:16 13,1 C 63 % 1017,6 hPa 0,0 l/m 0,0 km/h (0 Bft) W-SW 247 6,2 C 13,1 C
05.06.2012 22:21 13,1 C 63 % 1017,8 hPa 0,0 l/m 1,1 km/h (1 Bft) W-SW 247 6,2 C 13,1 C
05.06.2012 22:26 13,0 C 64 % 1017,6 hPa 0,0 l/m 0,0 km/h (0 Bft) W-SW 247 6,4 C 13,0 C
05.06.2012 22:31 12,9 C 64 % 1017,6 hPa 0,0 l/m 0,0 km/h (0 Bft) W-SW 247 6,3 C 12,9 C
05.06.2012 22:36 12,9 C 65 % 1017,8 hPa 0,0 l/m 2,9 km/h (1 Bft) S 180 6,5 C 12,9 C
05.06.2012 22:41 12,8 C 65 % 1017,8 hPa 0,0 l/m 1,4 km/h (1 Bft) S-SO 157 6,4 C 12,8 C
05.06.2012 22:46 12,7 C 65 % 1017,8 hPa 0,0 l/m 2,2 km/h (1 Bft) SO 135 6,3 C 12,7 C
05.06.2012 22:51 12,6 C 66 % 1017,6 hPa 0,0 l/m 0,0 km/h (0 Bft) S-SO 157 6,4 C 12,6 C
05.06.2012 22:56 12,5 C 66 % 1017,5 hPa 0,0 l/m 0,0 km/h (0 Bft) S-SO 157 6,3 C 12,5 C
05.06.2012 23:01 12,4 C 67 % 1017,4 hPa 0,0 l/m 0,0 km/h (0 Bft) S 180 6,4 C 12,4 C
05.06.2012 23:06 12,3 C 67 % 1017,4 hPa 0,0 l/m 0,0 km/h (0 Bft) S-SO 157 6,4 C 12,3 C
05.06.2012 23:11 12,2 C 67 % 1017,2 hPa 0,0 l/m 1,8 km/h (1 Bft) S-SO 157 6,3 C 12,2 C
05.06.2012 23:16 12,1 C 68 % 1017,1 hPa 0,0 l/m 0,0 km/h (0 Bft) S-SO 157 6,4 C 12,1 C
05.06.2012 23:21 11,9 C 68 % 1017,2 hPa 0,0 l/m 0,0 km/h (0 Bft) S-SO 157 6,2 C 11,9 C
05.06.2012 23:26 11,9 C 68 % 1017,1 hPa 0,0 l/m 1,1 km/h (1 Bft) S-SO 157 6,2 C 11,9 C
05.06.2012 23:31 11,8 C 69 % 1017,1 hPa 0,0 l/m 0,0 km/h (0 Bft) S-SO 157 6,3 C 11,8 C
05.06.2012 23:36 11,6 C 70 % 1017,1 hPa 0,0 l/m 0,0 km/h (0 Bft) S-SO 157 6,3 C 11,6 C
05.06.2012 23:41 11,5 C 70 % 1017,0 hPa 0,0 l/m 0,0 km/h (0 Bft) S 180 6,2 C 11,5 C
05.06.2012 23:46 11,4 C 70 % 1016,9 hPa 0,0 l/m 0,0 km/h (0 Bft) S 180 6,1 C 11,4 C
05.06.2012 23:51 11,4 C 71 % 1017,1 hPa 0,0 l/m 0,0 km/h (0 Bft) S-SO 157 6,3 C 11,4 C
05.06.2012 23:56 11,3 C 71 % 1017,2 hPa 0,0 l/m 0,0 km/h (0 Bft) S 180 6,2 C 11,3 C
_ Min-Zeit 06:16 14:56 00:01 - 11:56 - - 12:21 05:16
Minimum _ 8,3 C 50 % 1010,3 hPa - 0,0 km/h (0 Bft) - - 5,2 C 7,5 C
_ Max-Zeit 14:46 00:06 15:21 00:01 09:01 - - 08:01 14:46
Maximum _ 16,5 C 87 % 1017,9 hPa 0,5 l/m 18,7 km/h
W-NW (3 Bft)
- - 7,8 C 16,5 C
Durchschnitt _ 12,4 C 69 % 1015,5 hPa #3,6 l/m 6,5 km/h (2 Bft) W-NW - 6,5 C 12,3 C
(c) by David Heller